Time;durP1;ratioP1;P1;durP2;ratioP2;P2;SDS_P1;SDS_P2;PMS_P1;PMS_P2;Temp;Humidity;BMP_temperature;BMP_pressure;BME280_temperature;BME280_humidity;BME280_pressure;Samples;Min_cycle;Max_cycle;Signal;HPM_P1;HPM_P2
2021/01/06 00:02:08;;;;;;;263.80;169.95;;;153.70;1945.60;;;;;;5127027;27;20383;-76
2021/01/06 00:04:33;;;;;;;249.10;163.32;;;128.80;1971.20;;;;;;5123739;27;20480;-76
2021/01/06 00:06:59;;;;;;;276.30;172.55;;;128.90;1971.20;;;;;;5125315;27;20015;-75
2021/01/06 00:09:25;;;;;;;260.15;161.10;;;128.90;1971.20;;;;;;5126243;27;20038;-76
2021/01/06 00:11:51;;;;;;;239.45;148.60;;;153.60;1945.60;;;;;;5126028;27;20058;-76
2021/01/06 00:14:16;;;;;;;307.30;163.40;;;153.60;1945.60;;;;;;5121103;27;20090;-76
2021/01/06 00:16:43;;;;;;;300.67;169.52;;;153.70;1945.60;;;;;;5115954;28;20043;-76
2021/01/06 00:19:12;;;;;;;268.83;147.35;;;153.60;1945.60;;;;;;5116056;28;20019;-77
2021/01/06 00:21:41;;;;;;;256.58;143.10;;;128.90;1945.60;;;;;;5116026;28;20492;-77
2021/01/06 00:24:07;;;;;;;213.65;123.32;;;153.60;1945.60;;;;;;5115997;28;20423;-76
2021/01/06 00:26:36;;;;;;;246.05;148.25;;;153.60;1945.60;;;;;;5115778;28;20040;-77
2021/01/06 00:29:21;;;;;;;212.43;132.35;;;128.80;1945.60;;;;;;5115778;28;20108;-77
2021/01/06 00:31:46;;;;;;;172.75;104.20;;;128.80;1945.60;;;;;;5115656;28;20020;-76
2021/01/06 00:34:13;;;;;;;156.10;97.30;;;128.80;1945.60;;;;;;5115877;28;20081;-76
2021/01/06 00:36:39;;;;;;;181.25;106.40;;;128.80;1971.20;;;;;;5114630;28;20024;-75
2021/01/06 00:39:06;;;;;;;150.27;91.90;;;128.70;1945.60;;;;;;5114874;28;20016;-74
2021/01/06 00:41:34;;;;;;;139.68;87.57;;;128.60;1945.60;;;;;;5114724;28;20920;-76
2021/01/06 00:44:01;;;;;;;131.80;85.47;;;128.60;1945.60;;;;;;5114945;28;20027;-75
2021/01/06 00:46:37;;;;;;;140.50;87.50;;;128.60;1971.20;;;;;;5114748;28;20383;-75
2021/01/06 00:49:05;;;;;;;144.68;94.07;;;128.60;1971.20;;;;;;5111846;28;20027;-75
2021/01/06 00:51:31;;;;;;;144.35;90.47;;;128.70;1971.20;;;;;;5114745;28;20432;-76
2021/01/06 00:53:56;;;;;;;139.02;90.18;;;128.60;1945.60;;;;;;5114608;28;20039;-76
2021/01/06 00:56:30;;;;;;;142.48;91.65;;;128.50;1971.20;;;;;;5114721;28;20102;-75
2021/01/06 00:58:56;;;;;;;186.48;122.63;;;128.50;1971.20;;;;;;5109092;28;20096;-76
2021/01/06 01:01:23;;;;;;;205.90;134.27;;;128.20;1971.20;;;;;;5114178;28;20043;-77
2021/01/06 01:03:49;;;;;;;193.85;119.85;;;128.30;1996.80;;;;;;5114149;28;20228;-80
2021/01/06 01:06:25;;;;;;;189.52;118.53;;;128.30;1996.80;;;;;;5115249;28;20024;-75
2021/01/06 01:08:51;;;;;;;198.65;123.38;;;128.40;1996.80;;;;;;5115216;28;20024;-75
2021/01/06 01:11:16;;;;;;;188.40;119.75;;;128.40;1971.20;;;;;;5115342;28;20525;-75
2021/01/06 01:13:42;;;;;;;192.90;117.50;;;128.50;1971.20;;;;;;5114937;28;20494;-80
2021/01/06 01:16:08;;;;;;;201.18;121.72;;;128.50;1971.20;;;;;;5114005;28;20387;-79
2021/01/06 01:18:34;;;;;;;212.13;120.95;;;128.30;1971.20;;;;;;5114791;28;20128;-76
2021/01/06 01:21:00;;;;;;;195.55;119.70;;;128.30;1971.20;;;;;;5114939;28;20034;-75
2021/01/06 01:23:28;;;;;;;143.43;89.75;;;128.20;1971.20;;;;;;5114795;28;20047;-76
2021/01/06 01:25:54;;;;;;;154.63;98.07;;;128.30;1971.20;;;;;;5114767;28;20085;-76
2021/01/06 01:28:22;;;;;;;152.65;94.18;;;128.30;1971.20;;;;;;5116469;27;20058;-76
2021/01/06 01:30:51;;;;;;;180.13;108.38;;;128.30;1971.20;;;;;;5114549;28;20119;-76
2021/01/06 01:33:18;;;;;;;158.18;97.95;;;128.30;1971.20;;;;;;5114504;28;20024;-77
2021/01/06 01:35:44;;;;;;;160.85;100.47;;;128.30;1971.20;;;;;;5114488;28;20100;-75
2021/01/06 01:38:19;;;;;;;129.07;83.68;;;128.30;1971.20;;;;;;5096293;28;20503;-77
2021/01/06 01:40:45;;;;;;;132.20;83.22;;;128.30;1945.60;;;;;;5115024;28;20372;-76
2021/01/06 01:43:14;;;;;;;124.25;83.70;;;128.20;1971.20;;;;;;5114306;28;20028;-75
2021/01/06 01:46:01;;;;;;;120.45;75.20;;;128.00;1971.20;;;;;;5114440;28;20028;-74
2021/01/06 01:48:42;;;;;;;110.53;69.18;;;128.10;1996.80;;;;;;5114026;28;20026;-76
2021/01/06 01:51:27;;;;;;;95.97;61.25;;;103.10;1996.80;;;;;;5114345;28;20035;-75
2021/01/06 01:54:02;;;;;;;100.50;60.80;;;103.20;1996.80;;;;;;5114319;28;20047;-76
2021/01/06 01:56:54;;;;;;;102.47;60.45;;;103.20;1996.80;;;;;;5114086;28;20023;-75
2021/01/06 01:59:40;;;;;;;101.78;62.80;;;103.20;1996.80;;;;;;5051493;28;20060;-75
2021/01/06 02:02:47;;;;;;;102.32;65.20;;;103.30;1996.80;;;;;;5051339;28;20508;-75
2021/01/06 02:05:27;;;;;;;106.10;67.03;;;128.00;1996.80;;;;;;5051249;28;20040;-76
2021/01/06 02:08:01;;;;;;;115.13;71.63;;;128.00;1996.80;;;;;;5051458;28;20025;-75
2021/01/06 02:10:37;;;;;;;;;;;128.00;1996.80;;;;;;5051468;28;20143;-76
2021/01/06 02:13:26;;;;;;;143.48;86.65;;;128.00;1996.80;;;;;;5051484;28;19927;-77
2021/01/06 02:16:09;;;;;;;154.07;90.13;;;103.20;1971.20;;;;;;4972488;28;20034;-76
2021/01/06 02:18:34;;;;;;;189.98;110.95;;;103.30;1971.20;;;;;;4972667;28;20035;-75
2021/01/06 02:21:08;;;;;;;166.65;94.47;;;103.30;1971.20;;;;;;4972571;28;20073;-76
2021/01/06 02:23:34;;;;;;;155.38;93.43;;;103.30;1971.20;;;;;;4972503;28;20042;-77
2021/01/06 02:26:01;;;;;;;161.43;95.85;;;128.00;1996.80;;;;;;4972399;28;20501;-74
2021/01/06 02:28:27;;;;;;;111.80;69.15;;;128.00;1996.80;;;;;;4989073;28;20065;-75
2021/01/06 02:30:53;;;;;;;87.00;56.60;;;128.00;1996.80;;;;;;4991766;28;20155;-74
2021/01/06 02:33:19;;;;;;;82.50;54.13;;;103.30;1971.20;;;;;;4991779;28;20047;-78
2021/01/06 02:35:46;;;;;;;82.60;53.53;;;103.20;1996.80;;;;;;5006177;28;20482;-74
2021/01/06 02:38:11;;;;;;;82.93;52.63;;;102.90;1996.80;;;;;;5051014;28;20052;-75
2021/01/06 02:40:38;;;;;;;81.20;51.28;;;103.00;2022.40;;;;;;5051208;28;20029;-74
2021/01/06 02:43:04;;;;;;;84.05;53.67;;;102.90;2022.40;;;;;;5050839;28;20033;-74
2021/01/06 02:45:30;;;;;;;81.03;49.22;;;102.90;2022.40;;;;;;5050933;28;20462;-73
2021/01/06 02:47:56;;;;;;;90.75;58.42;;;103.00;2022.40;;;;;;5050891;28;20033;-74
2021/01/06 02:50:27;;;;;;;120.57;75.72;;;103.00;2022.40;;;;;;5050782;28;20419;-74
2021/01/06 02:52:58;;;;;;;101.32;63.47;;;103.10;1996.80;;;;;;5085288;28;20054;-75
2021/01/06 02:55:26;;;;;;;85.68;57.60;;;102.90;1996.80;;;;;;5134134;28;20482;-75
2021/01/06 02:57:55;;;;;;;86.53;56.65;;;103.00;1996.80;;;;;;5115767;28;20157;-75
2021/01/06 03:00:24;;;;;;;90.47;55.85;;;103.10;1996.80;;;;;;5133987;28;20406;-75
2021/01/06 03:02:51;;;;;;;81.35;55.00;;;103.00;1996.80;;;;;;5134116;28;20027;-76
2021/01/06 03:05:25;;;;;;;88.13;57.38;;;103.00;1996.80;;;;;;5133815;28;20072;-75
2021/01/06 03:07:51;;;;;;;;;;;103.10;1996.80;;;;;;5134346;28;20023;-75
2021/01/06 03:10:18;;;;;;;100.30;61.20;;;102.90;1996.80;;;;;;5133820;28;19918;-75
2021/01/06 03:12:46;;;;;;;100.43;62.90;;;103.00;1996.80;;;;;;5134062;28;20019;-75
2021/01/06 03:15:15;;;;;;;103.18;62.67;;;103.00;1996.80;;;;;;5134052;28;20034;-76
2021/01/06 03:17:41;;;;;;;88.85;55.05;;;103.10;1996.80;;;;;;5133851;28;20107;-75
2021/01/06 03:20:15;;;;;;;81.68;53.25;;;103.00;1996.80;;;;;;5133906;28;20435;-76
2021/01/06 03:22:47;;;;;;;69.25;46.35;;;103.10;1996.80;;;;;;5133769;28;20042;-76
2021/01/06 03:25:16;;;;;;;85.55;50.92;;;103.00;1996.80;;;;;;5133885;28;20019;-75
2021/01/06 03:27:45;;;;;;;66.10;42.95;;;103.00;1996.80;;;;;;5133542;28;20047;-76
2021/01/06 03:30:16;;;;;;;65.88;41.30;;;103.00;1996.80;;;;;;5133986;28;20031;-75
2021/01/06 03:32:46;;;;;;;58.85;37.60;;;103.00;1996.80;;;;;;5133557;28;20023;-75
2021/01/06 03:35:20;;;;;;;56.72;39.35;;;103.00;1996.80;;;;;;5133411;28;20498;-79
2021/01/06 03:37:53;;;;;;;67.93;44.72;;;103.00;1996.80;;;;;;5133672;27;20020;-75
2021/01/06 03:40:29;;;;;;;64.93;42.45;;;103.00;1996.80;;;;;;5136912;27;20087;-76
2021/01/06 03:42:56;;;;;;;67.20;40.83;;;102.90;1996.80;;;;;;5137635;27;20015;-75
2021/01/06 03:45:27;;;;;;;66.93;42.92;;;103.00;1996.80;;;;;;5137370;27;20023;-76
2021/01/06 03:48:19;;;;;;;61.83;42.53;;;103.00;2022.40;;;;;;5137039;27;20033;-76
2021/01/06 03:50:46;;;;;;;61.38;40.55;;;102.80;2022.40;;;;;;5136584;27;20073;-77
2021/01/06 03:53:38;;;;;;;63.50;40.25;;;102.90;1996.80;;;;;;5137079;27;20023;-75
2021/01/06 03:56:11;;;;;;;64.10;43.28;;;103.00;1996.80;;;;;;5137112;27;20023;-76
2021/01/06 03:58:46;;;;;;;72.80;45.33;;;102.90;1996.80;;;;;;5136904;27;20030;-76
2021/01/06 04:01:19;;;;;;;71.70;45.55;;;102.80;1996.80;;;;;;5137284;27;20038;-75
2021/01/06 04:03:54;;;;;;;56.70;38.17;;;102.80;2022.40;;;;;;5136636;27;20061;-75
2021/01/06 04:06:22;;;;;;;50.00;30.33;;;102.80;2022.40;;;;;;5137073;27;20417;-76
2021/01/06 04:08:54;;;;;;;38.75;26.88;;;102.80;2022.40;;;;;;5134033;27;20015;-75
2021/01/06 04:11:25;;;;;;;41.63;28.02;;;102.90;1996.80;;;;;;5116189;28;20503;-76
2021/01/06 04:13:51;;;;;;;40.33;27.52;;;102.90;2022.40;;;;;;5116281;28;20069;-76
2021/01/06 04:16:17;;;;;;;48.33;30.80;;;102.90;1996.80;;;;;;5115733;28;20399;-75
2021/01/06 04:18:43;;;;;;;58.15;39.38;;;102.80;2022.40;;;;;;5115994;28;20011;-76
2021/01/06 04:21:10;;;;;;;56.60;38.88;;;102.80;2022.40;;;;;;5115922;28;20023;-75
2021/01/06 04:23:36;;;;;;;78.90;48.25;;;102.80;1996.80;;;;;;5116108;28;20435;-76
2021/01/06 04:26:03;;;;;;;79.95;51.45;;;102.80;2022.40;;;;;;5116149;28;20126;-75
2021/01/06 04:28:33;;;;;;;61.25;45.28;;;102.80;1996.80;;;;;;5115814;28;20044;-75
2021/01/06 04:31:16;;;;;;;61.90;40.45;;;102.70;2022.40;;;;;;5115725;28;20365;-75
2021/01/06 04:33:54;;;;;;;66.03;39.63;;;102.50;2048.00;;;;;;5115862;28;20019;-75
2021/01/06 04:36:26;;;;;;;58.67;38.40;;;102.40;2073.60;;;;;;5115793;28;20398;-74
2021/01/06 04:39:04;;;;;;;59.20;38.63;;;102.50;2073.60;;;;;;5115759;28;20020;-75
2021/01/06 04:41:46;;;;;;;57.60;38.25;;;102.50;2048.00;;;;;;5115693;28;20114;-75
2021/01/06 04:44:40;;;;;;;62.15;38.30;;;102.60;2048.00;;;;;;5115549;28;20544;-75
2021/01/06 04:47:47;;;;;;;62.37;44.23;;;102.60;2048.00;;;;;;5115628;28;20020;-75
2021/01/06 04:50:52;;;;;;;54.42;32.85;;;102.60;2022.40;;;;;;5032395;28;20299;-75
2021/01/06 04:53:36;;;;;;;67.07;42.03;;;102.70;2022.40;;;;;;5032774;28;20025;-76
2021/01/06 04:56:32;;;;;;;63.35;44.03;;;102.60;2022.40;;;;;;5032887;28;20041;-75
2021/01/06 04:59:06;;;;;;;216.38;121.07;;;102.70;2022.40;;;;;;5032691;28;20030;-75
2021/01/06 05:01:40;;;;;;;50.67;34.28;;;102.60;2022.40;;;;;;5032664;28;20044;-75
2021/01/06 05:04:26;;;;;;;55.50;35.00;;;77.70;2048.00;;;;;;5032548;28;20022;-76
2021/01/06 05:06:52;;;;;;;96.55;62.85;;;102.40;2073.60;;;;;;5032623;28;20556;-74
2021/01/06 05:09:29;;;;;;;71.88;50.45;;;102.40;2073.60;;;;;;5032433;28;20033;-75
2021/01/06 05:12:11;;;;;;;51.92;35.08;;;102.40;2048.00;;;;;;5036494;28;20060;-75
2021/01/06 05:15:25;;;;;;;41.03;31.10;;;102.50;2048.00;;;;;;5071318;28;20061;-76
2021/01/06 05:17:50;;;;;;;59.45;37.75;;;102.60;2048.00;;;;;;4992823;28;20418;-75
2021/01/06 05:20:16;;;;;;;69.53;45.60;;;102.50;2048.00;;;;;;4992833;28;20027;-75
2021/01/06 05:22:42;;;;;;;93.05;59.28;;;102.50;2048.00;;;;;;4992973;28;20503;-76
2021/01/06 05:25:16;;;;;;;93.63;55.80;;;102.50;2048.00;;;;;;4992916;28;20033;-76
2021/01/06 05:27:43;;;;;;;75.82;48.60;;;102.60;2048.00;;;;;;5019808;28;20548;-75
2021/01/06 05:30:24;;;;;;;70.47;48.17;;;102.50;2048.00;;;;;;5032099;28;20468;-75
2021/01/06 05:32:54;;;;;;;93.30;58.67;;;102.60;2048.00;;;;;;5031998;28;20104;-76
2021/01/06 05:35:26;;;;;;;101.63;68.20;;;102.50;2048.00;;;;;;5031831;28;20477;-74
2021/01/06 05:37:58;;;;;;;168.10;104.18;;;102.60;2022.40;;;;;;5031935;28;20401;-76
2021/01/06 05:40:25;;;;;;;161.77;98.97;;;102.60;2022.40;;;;;;5031784;28;20034;-76
2021/01/06 05:42:52;;;;;;;155.65;93.80;;;102.70;2022.40;;;;;;5031853;28;20124;-75
2021/01/06 05:45:25;;;;;;;199.77;102.18;;;102.60;2022.40;;;;;;5031938;28;20025;-75
2021/01/06 05:47:54;;;;;;;181.48;94.43;;;102.50;2048.00;;;;;;5031643;28;20041;-75
2021/01/06 05:50:36;;;;;;;128.30;77.63;;;102.60;2048.00;;;;;;5031598;28;20490;-75
2021/01/06 05:53:23;;;;;;;130.13;80.88;;;102.60;2048.00;;;;;;5031537;28;20092;-76
2021/01/06 05:55:51;;;;;;;98.68;64.03;;;102.60;2048.00;;;;;;5134396;27;20062;-76
2021/01/06 05:58:33;;;;;;;87.75;57.45;;;102.60;2022.40;;;;;;5134586;27;20022;-77
2021/01/06 06:01:18;;;;;;;75.20;52.47;;;102.60;2022.40;;;;;;5134595;27;20011;-77
2021/01/06 06:04:25;;;;;;;81.90;52.08;;;102.60;2022.40;;;;;;5134749;27;20015;-76
2021/01/06 06:07:17;;;;;;;79.18;50.42;;;102.60;2022.40;;;;;;5134535;27;20485;-76
2021/01/06 06:10:02;;;;;;;75.32;51.92;;;102.60;2022.40;;;;;;5134375;27;20119;-75
2021/01/06 06:12:28;;;;;;;81.90;53.25;;;102.60;2022.40;;;;;;5134310;27;20022;-74
2021/01/06 06:15:03;;;;;;;69.97;45.60;;;102.60;2048.00;;;;;;5134530;27;20417;-75
2021/01/06 06:17:47;;;;;;;70.25;44.58;;;102.60;2022.40;;;;;;5134578;27;20391;-77
2021/01/06 06:20:25;;;;;;;75.88;50.90;;;102.60;2022.40;;;;;;5134428;27;20031;-77
2021/01/06 06:23:21;;;;;;;95.38;57.63;;;102.60;2048.00;;;;;;5134254;27;20027;-75
2021/01/06 06:26:01;;;;;;;90.32;58.65;;;102.70;2048.00;;;;;;5134605;27;20424;-74
2021/01/06 06:28:42;;;;;;;86.40;59.78;;;102.70;2022.40;;;;;;5134308;27;20039;-75
2021/01/06 06:31:22;;;;;;;89.45;59.72;;;102.70;2022.40;;;;;;5134050;27;20118;-78
2021/01/06 06:33:55;;;;;;;94.35;62.30;;;102.70;2022.40;;;;;;5134219;27;20487;-76
2021/01/06 06:36:24;;;;;;;266.88;152.30;;;102.80;2048.00;;;;;;5134249;28;20061;-75
2021/01/06 06:38:51;;;;;;;114.35;71.97;;;102.80;2022.40;;;;;;5133777;28;20506;-75
2021/01/06 06:41:23;;;;;;;136.48;87.57;;;102.70;2048.00;;;;;;5134259;28;20050;-76
2021/01/06 06:44:14;;;;;;;161.45;99.72;;;102.80;2048.00;;;;;;5134112;28;20026;-77
2021/01/06 06:46:45;;;;;;;152.35;84.28;;;102.70;2048.00;;;;;;5134094;28;20114;-75
2021/01/06 06:49:11;;;;;;;141.23;84.25;;;102.70;2048.00;;;;;;5124360;28;20092;-75
2021/01/06 06:52:02;;;;;;;124.38;73.82;;;102.80;2048.00;;;;;;5133929;28;20023;-76
2021/01/06 06:54:44;;;;;;;123.07;73.97;;;102.70;2048.00;;;;;;5134230;28;20054;-80
2021/01/06 06:57:41;;;;;;;96.88;60.63;;;102.60;2048.00;;;;;;5133073;28;20035;-79
2021/01/06 07:00:23;;;;;;;71.10;47.40;;;102.70;2048.00;;;;;;5011403;28;20534;-75
2021/01/06 07:03:01;;;;;;;85.68;58.50;;;102.90;2048.00;;;;;;5011413;28;20398;-76
2021/01/06 07:05:55;;;;;;;97.32;65.20;;;102.90;2048.00;;;;;;5010392;28;20041;-78
2021/01/06 07:08:29;;;;;;;120.25;82.95;;;103.00;2022.40;;;;;;4991650;28;20025;-79
2021/01/06 07:11:33;;;;;;;157.25;97.85;;;103.10;2022.40;;;;;;5028212;28;20065;-79
2021/01/06 07:14:07;;;;;;;164.68;109.43;;;103.20;2022.40;;;;;;4959180;28;20175;-77
2021/01/06 07:16:53;;;;;;;158.27;107.25;;;103.20;2022.40;;;;;;4964458;28;20035;-75
2021/01/06 07:19:22;;;;;;;150.85;104.50;;;103.30;1996.80;;;;;;4966716;28;20121;-78
2021/01/06 07:22:20;;;;;;;154.52;110.10;;;128.00;2048.00;;;;;;4975765;28;20027;-77
2021/01/06 07:25:02;;;;;;;163.93;118.28;;;128.10;2022.40;;;;;;4975626;28;20400;-78
2021/01/06 07:27:31;;;;;;;185.95;126.65;;;128.20;2022.40;;;;;;4975493;28;20078;-78
2021/01/06 07:29:57;;;;;;;179.40;118.35;;;128.10;2022.40;;;;;;4975471;28;20059;-77
2021/01/06 07:32:39;;;;;;;120.78;75.45;;;128.20;2022.40;;;;;;4975350;28;20035;-77
2021/01/06 07:35:20;;;;;;;95.65;63.50;;;128.30;2022.40;;;;;;4975638;28;20464;-78
2021/01/06 07:37:57;;;;;;;82.68;56.08;;;128.30;2022.40;;;;;;5032836;28;20567;-77
2021/01/06 07:40:43;;;;;;;114.40;75.43;;;128.40;2022.40;;;;;;5054318;28;20040;-77
2021/01/06 07:43:16;;;;;;;86.15;58.00;;;128.50;2022.40;;;;;;5054202;28;20065;-77
2021/01/06 07:46:03;;;;;;;55.97;40.97;;;128.60;2022.40;;;;;;5037085;28;20021;-77
2021/01/06 07:48:43;;;;;;;126.78;81.38;;;128.60;2022.40;;;;;;5053926;28;20029;-78
2021/01/06 07:51:18;;;;;;;144.32;95.35;;;128.70;1996.80;;;;;;5108463;27;20039;-78
2021/01/06 07:54:09;;;;;;;136.27;89.57;;;128.80;1996.80;;;;;;5137126;27;20022;-77
2021/01/06 07:56:59;;;;;;;133.10;92.93;;;128.90;1996.80;;;;;;5118731;27;20071;-77
2021/01/06 07:59:46;;;;;;;137.25;92.25;;;128.90;1996.80;;;;;;5137056;27;20087;-77
2021/01/06 08:02:17;;;;;;;140.68;96.55;;;128.90;1996.80;;;;;;5136553;27;20027;-78
2021/01/06 08:04:55;;;;;;;148.05;100.72;;;153.60;1996.80;;;;;;5118440;27;20030;-79
2021/01/06 08:07:23;;;;;;;160.82;113.38;;;153.80;1971.20;;;;;;5118433;27;20027;-77
2021/01/06 08:09:49;;;;;;;155.93;108.15;;;153.90;1971.20;;;;;;5136829;27;20077;-78
2021/01/06 08:12:28;;;;;;;169.48;119.57;;;154.00;1971.20;;;;;;5118269;27;20019;-77
2021/01/06 08:15:16;;;;;;;188.82;135.10;;;154.10;1971.20;;;;;;5118127;27;20038;-78
2021/01/06 08:18:02;;;;;;;158.63;111.10;;;154.20;1971.20;;;;;;5136769;27;20048;-79
2021/01/06 08:20:36;;;;;;;196.55;142.13;;;154.30;1945.60;;;;;;5136629;27;20537;-79
2021/01/06 08:23:14;;;;;;;237.52;169.85;;;154.40;1945.60;;;;;;5136656;27;20073;-77
2021/01/06 08:25:41;;;;;;;191.38;141.32;;;154.50;1971.20;;;;;;5136033;27;20088;-78
2021/01/06 08:28:15;;;;;;;204.98;153.20;;;154.50;1971.20;;;;;;5136282;27;20035;-77
2021/01/06 08:30:41;;;;;;;195.82;144.98;;;179.20;1945.60;;;;;;5136478;27;20080;-77
2021/01/06 08:33:09;;;;;;;199.70;145.98;;;179.30;1945.60;;;;;;5136413;27;20020;-77
2021/01/06 08:35:42;;;;;;;175.80;124.47;;;179.40;1945.60;;;;;;5136103;27;20027;-77
2021/01/06 08:38:45;;;;;;;128.38;96.32;;;179.50;1945.60;;;;;;5136352;27;20027;-77
2021/01/06 08:41:22;;;;;;;99.40;74.10;;;179.50;1920.00;;;;;;5052974;28;20029;-76
2021/01/06 08:43:49;;;;;;;90.95;67.55;;;179.60;1945.60;;;;;;5052712;28;20033;-77
2021/01/06 08:46:32;;;;;;;103.75;68.65;;;179.70;1920.00;;;;;;5052854;28;20550;-77
2021/01/06 08:49:09;;;;;;;81.28;61.58;;;179.90;1920.00;;;;;;5052768;28;20032;-77
2021/01/06 08:51:37;;;;;;;58.08;42.33;;;180.10;1920.00;;;;;;5052751;28;20033;-78
2021/01/06 08:54:28;;;;;;;46.55;34.58;;;204.90;1894.40;;;;;;5052369;28;20425;-78
2021/01/06 08:57:06;;;;;;;49.60;36.50;;;205.10;1868.80;;;;;;4973846;28;20042;-78
2021/01/06 08:59:36;;;;;;;38.20;29.67;;;205.30;1843.20;;;;;;4974057;28;20063;-78
2021/01/06 09:02:10;;;;;;;45.10;33.92;;;205.30;1843.20;;;;;;4973874;28;20387;-77
2021/01/06 09:04:40;;;;;;;;;;;205.40;1843.20;;;;;;4974254;28;20354;-77
2021/01/06 09:07:33;;;;;;;60.55;42.53;;;205.60;1817.60;;;;;;4973710;28;19906;-78
2021/01/06 09:10:16;;;;;;;60.92;42.63;;;230.40;1792.00;;;;;;4989850;28;20551;-77
2021/01/06 09:13:03;;;;;;;51.28;40.13;;;230.70;1740.80;;;;;;4973445;28;20060;-77
2021/01/06 09:15:45;;;;;;;117.63;69.57;;;231.00;1715.20;;;;;;5025179;28;20033;-78
2021/01/06 09:18:35;;;;;;;79.32;54.95;;;231.20;1689.60;;;;;;5052430;28;20060;-77
2021/01/06 09:21:04;;;;;;;64.55;47.15;;;256.10;1664.00;;;;;;5035466;28;20036;-77
2021/01/06 09:23:31;;;;;;;58.92;39.38;;;256.40;1664.00;;;;;;5051919;28;20452;-77
2021/01/06 09:26:01;;;;;;;61.55;46.58;;;256.70;1612.80;;;;;;5035209;28;20458;-79
2021/01/06 09:28:30;;;;;;;65.40;49.42;;;256.90;1612.80;;;;;;5052025;28;20044;-77
2021/01/06 09:30:57;;;;;;;60.88;44.33;;;281.70;1638.40;;;;;;5052182;28;20096;-78
2021/01/06 09:33:27;;;;;;;63.15;42.92;;;282.00;1612.80;;;;;;5077498;27;20352;-77
2021/01/06 09:35:53;;;;;;;55.95;39.88;;;282.10;1612.80;;;;;;5116317;27;20082;-77
2021/01/06 09:38:29;;;;;;;63.58;38.83;;;282.30;1587.20;;;;;;5134520;27;20066;-77
2021/01/06 09:40:59;;;;;;;58.65;43.22;;;282.50;1587.20;;;;;;5116556;27;20042;-78
2021/01/06 09:43:37;;;;;;;59.50;41.85;;;307.30;1587.20;;;;;;5135066;27;20015;-77
2021/01/06 09:46:13;;;;;;;49.05;37.33;;;307.30;1587.20;;;;;;5135060;27;20437;-78
2021/01/06 09:48:42;;;;;;;61.80;51.75;;;307.30;1587.20;;;;;;5134951;27;20068;-77
2021/01/06 09:51:08;;;;;;;63.08;49.70;;;307.40;1587.20;;;;;;5134757;27;20106;-77
2021/01/06 09:53:34;;;;;;;81.93;57.38;;;307.20;1587.20;;;;;;5116355;27;20107;-77
2021/01/06 09:56:00;;;;;;;63.45;48.10;;;307.50;1587.20;;;;;;5134870;27;20551;-77
2021/01/06 09:58:29;;;;;;;82.05;57.05;;;307.80;1561.60;;;;;;5134843;27;20459;-77
2021/01/06 10:01:00;;;;;;;76.28;54.08;;;308.00;1561.60;;;;;;5116346;27;20391;-77
2021/01/06 10:03:36;;;;;;;69.32;52.83;;;307.80;1561.60;;;;;;5134755;27;20027;-77
2021/01/06 10:06:20;;;;;;;68.97;47.35;;;307.60;1587.20;;;;;;5134463;27;20026;-77
2021/01/06 10:08:51;;;;;;;52.13;35.63;;;307.40;1612.80;;;;;;5116227;27;20114;-78
2021/01/06 10:11:27;;;;;;;59.83;43.55;;;307.20;1612.80;;;;;;5115079;27;20036;-77
2021/01/06 10:14:11;;;;;;;90.25;60.55;;;282.40;1612.80;;;;;;5134741;27;20023;-77
2021/01/06 10:16:48;;;;;;;65.57;46.28;;;282.40;1612.80;;;;;;5134594;27;20497;-77
2021/01/06 10:19:32;;;;;;;47.72;36.83;;;282.40;1638.40;;;;;;5116139;27;20070;-77
2021/01/06 10:22:40;;;;;;;68.97;46.55;;;282.30;1638.40;;;;;;5134280;27;20038;-78
2021/01/06 10:25:16;;;;;;;69.35;48.35;;;282.20;1638.40;;;;;;5034518;28;20048;-77
2021/01/06 10:28:03;;;;;;;65.20;47.78;;;282.20;1638.40;;;;;;5051040;28;20075;-77
2021/01/06 10:30:31;;;;;;;98.00;57.60;;;282.10;1638.40;;;;;;5034310;28;20148;-78
2021/01/06 10:33:11;;;;;;;98.25;56.17;;;282.10;1664.00;;;;;;5051467;28;20029;-78
2021/01/06 10:36:14;;;;;;;82.75;56.22;;;282.10;1664.00;;;;;;5050822;28;20533;-77
2021/01/06 10:38:43;;;;;;;61.10;43.17;;;282.10;1638.40;;;;;;5051327;28;20096;-78
2021/01/06 10:41:11;;;;;;;62.65;35.28;;;282.10;1638.40;;;;;;5034425;28;20469;-77
2021/01/06 10:43:42;;;;;;;55.05;39.15;;;282.00;1638.40;;;;;;5050908;28;20041;-78
2021/01/06 10:46:46;;;;;;;61.45;40.50;;;282.00;1664.00;;;;;;5051059;28;20104;-77
2021/01/06 10:49:20;;;;;;;64.55;44.25;;;282.10;1664.00;;;;;;5054078;28;20477;-77
2021/01/06 10:52:13;;;;;;;79.75;55.33;;;282.10;1664.00;;;;;;5055175;28;20037;-78
2021/01/06 10:54:40;;;;;;;87.07;56.60;;;282.10;1664.00;;;;;;5055008;28;20036;-78
2021/01/06 10:57:23;;;;;;;58.50;42.80;;;282.10;1664.00;;;;;;5038211;28;20075;-77
2021/01/06 11:00:22;;;;;;;60.10;43.58;;;282.10;1664.00;;;;;;5054391;28;20025;-78
2021/01/06 11:03:09;;;;;;;53.20;39.28;;;282.30;1638.40;;;;;;5116217;27;20035;-78
2021/01/06 11:05:38;;;;;;;65.43;43.15;;;282.30;1638.40;;;;;;5138137;27;20019;-77
2021/01/06 11:08:41;;;;;;;58.47;41.58;;;282.30;1664.00;;;;;;5119818;27;20031;-78
2021/01/06 11:11:44;;;;;;;58.33;41.92;;;282.20;1638.40;;;;;;5137839;27;20456;-78
2021/01/06 11:14:28;;;;;;;48.33;37.15;;;282.10;1638.40;;;;;;5054648;28;20398;-77
2021/01/06 11:17:13;;;;;;;64.18;43.40;;;282.10;1664.00;;;;;;5054652;28;20039;-78
2021/01/06 11:19:44;;;;;;;60.15;41.53;;;282.00;1664.00;;;;;;5054374;28;20123;-78
2021/01/06 11:22:27;;;;;;;59.00;40.63;;;281.90;1664.00;;;;;;5054556;28;20028;-78
2021/01/06 11:24:58;;;;;;;50.47;35.45;;;281.90;1664.00;;;;;;5037728;28;20432;-77
2021/01/06 11:27:53;;;;;;;65.47;41.35;;;281.90;1689.60;;;;;;5054293;28;20044;-79
2021/01/06 11:30:34;;;;;;;117.70;85.05;;;282.00;1664.00;;;;;;5054519;28;20041;-78
2021/01/06 11:33:15;;;;;;;94.65;70.80;;;282.00;1664.00;;;;;;5054260;28;20044;-77
2021/01/06 11:36:06;;;;;;;108.90;75.68;;;282.00;1664.00;;;;;;5054312;28;20420;-77
2021/01/06 11:38:38;;;;;;;127.35;84.50;;;282.00;1664.00;;;;;;5053198;28;20574;-78
2021/01/06 11:41:11;;;;;;;105.72;76.90;;;282.00;1689.60;;;;;;5054507;28;20112;-79
2021/01/06 11:44:06;;;;;;;88.00;64.63;;;282.00;1664.00;;;;;;5054167;28;20045;-78
2021/01/06 11:46:35;;;;;;;87.03;61.30;;;282.20;1664.00;;;;;;5053932;28;20031;-78
2021/01/06 11:49:06;;;;;;;92.38;56.50;;;282.20;1664.00;;;;;;5054057;28;20040;-78
2021/01/06 11:51:33;;;;;;;75.88;57.83;;;282.20;1689.60;;;;;;5111449;27;20105;-77
2021/01/06 11:54:24;;;;;;;69.53;55.38;;;282.30;1664.00;;;;;;5137064;27;20455;-78
2021/01/06 11:57:18;;;;;;;96.90;62.20;;;282.30;1664.00;;;;;;5137365;27;20031;-78
2021/01/06 11:59:51;;;;;;;84.47;59.50;;;282.40;1664.00;;;;;;5036056;28;20037;-77
2021/01/06 12:02:27;;;;;;;80.17;60.77;;;282.30;1664.00;;;;;;5053933;28;20535;-77
2021/01/06 12:05:16;;;;;;;86.40;63.97;;;282.40;1664.00;;;;;;5036937;28;20638;-78
2021/01/06 12:08:03;;;;;;;97.20;69.60;;;282.40;1664.00;;;;;;5036032;28;20037;-78
2021/01/06 12:10:50;;;;;;;100.72;75.47;;;282.40;1664.00;;;;;;5053507;28;20187;-78
2021/01/06 12:13:50;;;;;;;107.20;78.25;;;282.30;1689.60;;;;;;5053545;28;20047;-78
2021/01/06 12:16:32;;;;;;;124.70;89.30;;;282.40;1664.00;;;;;;4974658;28;20112;-77
2021/01/06 12:19:07;;;;;;;112.20;80.68;;;282.40;1689.60;;;;;;4974890;28;20451;-77
2021/01/06 12:21:36;;;;;;;99.32;70.03;;;282.40;1689.60;;;;;;4974567;28;20443;-78
2021/01/06 12:24:42;;;;;;;92.85;67.90;;;282.50;1664.00;;;;;;4974068;28;20555;-77
2021/01/06 12:27:09;;;;;;;78.82;61.20;;;307.20;1689.60;;;;;;4917065;29;20112;-77
2021/01/06 12:29:52;;;;;;;79.82;56.63;;;307.20;1689.60;;;;;;4916921;29;20059;-77
2021/01/06 12:32:41;;;;;;;78.53;55.33;;;307.30;1689.60;;;;;;4916990;29;20036;-78
2021/01/06 12:35:37;;;;;;;71.88;52.33;;;307.30;1689.60;;;;;;4932992;29;20039;-77
2021/01/06 12:38:11;;;;;;;84.90;62.65;;;307.30;1664.00;;;;;;4955091;29;20055;-77